createdAt,value
2023-03-22T00:00:53.148Z,82.9
2023-03-22T00:03:41.184Z,82.7
2023-03-22T00:06:29.148Z,82.8
2023-03-22T00:09:16.759Z,82.7
2023-03-22T00:12:04.593Z,82.6
2023-03-22T00:14:52.383Z,82.6
2023-03-22T00:17:40.213Z,82.5
2023-03-22T00:20:28.116Z,82.4
2023-03-22T00:23:16.074Z,82.4
2023-03-22T00:26:04.021Z,82.4
2023-03-22T00:28:51.748Z,82.4
2023-03-22T00:31:39.709Z,82.4
2023-03-22T00:34:27.738Z,82.4
2023-03-22T00:37:15.634Z,82.3
2023-03-22T00:40:03.530Z,82.4
2023-03-22T00:42:51.281Z,82.3
2023-03-22T00:45:39.117Z,82.3
2023-03-22T00:48:26.945Z,82.4
2023-03-22T00:51:14.836Z,82.5
2023-03-22T00:54:02.649Z,82.5
2023-03-22T00:56:50.437Z,82.4
2023-03-22T00:59:38.238Z,82.6
2023-03-22T01:02:26.080Z,82.8
2023-03-22T01:05:13.956Z,82.9
2023-03-22T01:08:01.941Z,82.9
2023-03-22T01:10:49.843Z,82.8
2023-03-22T01:13:37.889Z,82.8
2023-03-22T01:16:25.667Z,82.6
2023-03-22T01:19:13.543Z,82.6
2023-03-22T01:22:01.359Z,82.6
2023-03-22T01:24:49.325Z,82.8
2023-03-22T01:27:37.035Z,82.8
2023-03-22T01:30:25.013Z,82.8
2023-03-22T01:33:12.859Z,82.8
2023-03-22T01:36:01.157Z,82.8
2023-03-22T01:38:49.139Z,82.8
2023-03-22T01:41:37.039Z,82.6
2023-03-22T01:44:24.834Z,82.6
2023-03-22T01:47:12.702Z,82.5
2023-03-22T01:50:00.482Z,82.5
2023-03-22T01:52:48.367Z,82.5
2023-03-22T01:55:36.155Z,82.7
2023-03-22T01:58:24.061Z,82.8
2023-03-22T02:01:12.113Z,83
2023-03-22T02:03:59.963Z,83.2
2023-03-22T02:06:47.834Z,83.4
2023-03-22T02:09:35.633Z,83.5
2023-03-22T02:12:23.485Z,83.7
2023-03-22T02:15:11.489Z,83.9
2023-03-22T02:17:59.336Z,84
2023-03-22T02:20:47.329Z,84.3
2023-03-22T02:23:35.159Z,84.5
2023-03-22T02:26:22.996Z,84.5
2023-03-22T02:29:10.854Z,84.3
2023-03-22T02:31:58.919Z,84.3
2023-03-22T02:34:46.835Z,84.2
2023-03-22T02:37:34.843Z,84.2
2023-03-22T02:40:22.576Z,84.2
2023-03-22T02:43:10.511Z,84.4
2023-03-22T02:45:58.403Z,84.4
2023-03-22T02:48:46.441Z,84.6
2023-03-22T02:51:34.393Z,84.8
2023-03-22T02:54:22.370Z,85
2023-03-22T02:57:10.096Z,85.2
2023-03-22T02:59:57.984Z,85.4
2023-03-22T03:02:46.022Z,85.5
2023-03-22T03:05:33.905Z,85.7
2023-03-22T03:08:21.665Z,86
2023-03-22T03:11:10.448Z,86.2
2023-03-22T03:13:58.327Z,86.3
2023-03-22T03:16:46.581Z,86.6
2023-03-22T03:19:34.429Z,86.8
2023-03-22T03:22:22.306Z,86.9
2023-03-22T03:25:10.109Z,87
2023-03-22T03:27:57.915Z,87.1
2023-03-22T03:30:45.851Z,87
2023-03-22T03:33:33.737Z,87.1
2023-03-22T03:36:21.666Z,86.9
2023-03-22T03:39:09.521Z,87
2023-03-22T03:41:57.470Z,87.1
2023-03-22T03:44:45.320Z,87.2
2023-03-22T03:47:33.209Z,87.4
2023-03-22T03:50:21.042Z,87.4
2023-03-22T03:53:08.789Z,87.5
2023-03-22T03:55:56.659Z,87.5
2023-03-22T03:58:44.700Z,87.6
2023-03-22T04:01:33.020Z,87.7
2023-03-22T04:04:21.054Z,87.7
2023-03-22T04:07:08.951Z,87.8
2023-03-22T04:09:56.819Z,87.9
2023-03-22T04:12:44.820Z,88.5
2023-03-22T04:15:32.783Z,89
2023-03-22T04:18:20.770Z,89
2023-03-22T04:21:09.073Z,88.6
2023-03-22T04:23:56.853Z,88.6
2023-03-22T04:26:44.841Z,88.1
2023-03-22T04:29:32.874Z,87.8
2023-03-22T04:32:20.731Z,87.7
2023-03-22T04:35:08.620Z,87.7
2023-03-22T04:37:56.329Z,87.9
2023-03-22T04:40:44.312Z,88
2023-03-22T04:43:32.151Z,88.2
2023-03-22T04:46:20.086Z,88.4
2023-03-22T04:49:08.057Z,88.5
2023-03-22T04:51:56.083Z,88.5
2023-03-22T04:54:43.945Z,88.7
2023-03-22T04:57:31.831Z,89.1
2023-03-22T05:00:19.573Z,89.3
2023-03-22T05:03:09.750Z,89.3
2023-03-22T05:05:57.659Z,89.4
2023-03-22T05:08:45.673Z,89.6
2023-03-22T05:11:33.458Z,89.6
2023-03-22T05:14:21.580Z,89.4
2023-03-22T05:17:09.597Z,89.2
2023-03-22T05:19:57.476Z,89
2023-03-22T05:22:45.358Z,88.8
2023-03-22T05:25:33.399Z,88.7
2023-03-22T05:28:21.183Z,88.7
2023-03-22T05:31:09.522Z,88.5
2023-03-22T05:33:57.273Z,88.2
2023-03-22T05:36:45.153Z,88
2023-03-22T05:39:32.960Z,88.2
2023-03-22T05:42:20.973Z,88.2
2023-03-22T05:45:08.811Z,88.4
2023-03-22T05:47:57.100Z,88.5
2023-03-22T05:50:45.044Z,88.5
2023-03-22T05:53:32.977Z,88.6
2023-03-22T05:56:20.835Z,88.8
2023-03-22T05:59:08.800Z,88.9
2023-03-22T06:01:56.905Z,88.9
2023-03-22T06:04:44.744Z,88.8
2023-03-22T06:07:32.511Z,88.7
2023-03-22T06:10:20.496Z,88.7
2023-03-22T06:13:08.538Z,88.9
2023-03-22T06:15:56.437Z,88.8
2023-03-22T06:18:44.257Z,88.7
2023-03-22T06:21:32.189Z,88.6
2023-03-22T06:24:19.977Z,88.4
2023-03-22T06:27:07.962Z,88.3
2023-03-22T06:29:55.927Z,88.2
2023-03-22T06:32:43.782Z,87.9
2023-03-22T06:35:31.678Z,87.7
2023-03-22T06:38:19.906Z,87.5
2023-03-22T06:41:08.354Z,87.1
2023-03-22T06:43:56.399Z,86.8
2023-03-22T06:46:44.357Z,86.5
2023-03-22T06:49:32.316Z,86.3
2023-03-22T06:52:20.105Z,85.8
2023-03-22T06:55:07.939Z,85.5
2023-03-22T06:57:55.716Z,85
2023-03-22T07:00:43.855Z,84.8
2023-03-22T07:03:32.187Z,84.6
2023-03-22T07:06:20.089Z,84.6
2023-03-22T07:09:08.078Z,84.4
2023-03-22T07:11:56.030Z,84.5
2023-03-22T07:14:43.820Z,84.4
2023-03-22T07:17:31.787Z,83.7
2023-03-22T07:20:19.762Z,83.4
2023-03-22T07:23:07.658Z,83.1
2023-03-22T07:25:55.441Z,82.7
2023-03-22T07:28:43.380Z,81.4
2023-03-22T07:31:31.160Z,81.2
2023-03-22T07:34:19.269Z,80.7
2023-03-22T07:37:07.169Z,80.8
2023-03-22T07:39:55.332Z,80.7
2023-03-22T07:42:43.225Z,80.5
2023-03-22T07:45:31.346Z,80.5
2023-03-22T07:48:22.690Z,79.3
2023-03-22T07:51:11.030Z,79.5
2023-03-22T07:53:59.173Z,79.5
2023-03-22T07:56:47.181Z,79.6
2023-03-22T07:59:35.380Z,79.2
2023-03-22T08:02:23.694Z,79
2023-03-22T08:05:11.704Z,78.9
2023-03-22T08:07:59.495Z,78.4
2023-03-22T08:10:47.432Z,77.8
2023-03-22T08:13:35.462Z,77
2023-03-22T08:16:23.852Z,77.4
2023-03-22T08:19:13.826Z,76.9
2023-03-22T08:22:01.717Z,77.2
2023-03-22T08:24:49.632Z,77.1
2023-03-22T08:27:37.765Z,77
2023-03-22T08:30:25.686Z,76.9
2023-03-22T08:33:13.519Z,76.8
2023-03-22T08:36:01.836Z,76.3
2023-03-22T08:38:49.788Z,76.5
2023-03-22T08:41:37.701Z,76.6
2023-03-22T08:44:25.434Z,76.5
2023-03-22T08:47:13.291Z,76.2
2023-03-22T08:50:01.116Z,76
2023-03-22T08:52:49.067Z,76.2
2023-03-22T08:55:36.994Z,75.7
2023-03-22T08:58:25.090Z,75.5
2023-03-22T09:01:18.310Z,75.1
2023-03-22T09:04:10.186Z,74.8
2023-03-22T09:06:58.594Z,73.8
2023-03-22T09:09:46.512Z,74
2023-03-22T09:12:34.298Z,74.7
2023-03-22T09:15:24.916Z,74.4
2023-03-22T09:18:12.823Z,73.6
2023-03-22T09:21:00.975Z,71.9
2023-03-22T09:23:48.871Z,71.6
2023-03-22T09:26:36.898Z,72
2023-03-22T09:29:24.606Z,70.8
2023-03-22T09:32:12.405Z,71.2
2023-03-22T09:35:00.323Z,71.6
2023-03-22T09:37:48.284Z,72.1
2023-03-22T09:40:36.043Z,72.1
2023-03-22T09:43:23.849Z,72.5
2023-03-22T09:46:12.125Z,72.7
2023-03-22T09:49:00.288Z,72.4
2023-03-22T09:51:48.249Z,72
2023-03-22T09:54:36.411Z,71.6
2023-03-22T09:57:24.293Z,71.4
2023-03-22T10:00:12.185Z,71.5
2023-03-22T10:03:00.177Z,71.6
2023-03-22T10:05:48.058Z,71.2
2023-03-22T10:08:35.933Z,72.4
2023-03-22T10:11:23.831Z,71.2
2023-03-22T10:14:11.626Z,69.3
2023-03-22T10:16:59.550Z,69.2
2023-03-22T10:19:47.333Z,66.6
2023-03-22T10:22:35.343Z,65.4
2023-03-22T10:25:23.399Z,65
2023-03-22T10:28:11.448Z,66.1
2023-03-22T10:30:59.451Z,66.7
2023-03-22T10:33:47.272Z,66.5
2023-03-22T10:36:35.163Z,66.9
2023-03-22T10:39:23.094Z,67.9
2023-03-22T10:42:11.112Z,68
2023-03-22T10:44:59.088Z,67.2
2023-03-22T10:47:46.925Z,67.5
2023-03-22T10:50:34.857Z,68
2023-03-22T10:53:22.690Z,68.4
2023-03-22T10:56:11.235Z,67.2
2023-03-22T10:58:59.056Z,67.4
2023-03-22T11:01:47.546Z,67.5
2023-03-22T11:04:35.663Z,66.8
2023-03-22T11:07:24.924Z,66.7
2023-03-22T11:10:12.878Z,67.1
2023-03-22T11:13:00.850Z,67.2
2023-03-22T11:15:48.607Z,66.5
2023-03-22T11:18:36.624Z,66.5
2023-03-22T11:21:24.535Z,66.4
2023-03-22T11:24:12.488Z,66.8
2023-03-22T11:27:00.429Z,66.7
2023-03-22T11:29:48.223Z,66.8
2023-03-22T11:32:36.438Z,66.4
2023-03-22T11:35:24.505Z,66.3
2023-03-22T11:38:12.534Z,66.9
2023-03-22T11:41:00.475Z,66.9
2023-03-22T11:43:48.449Z,66.7
2023-03-22T11:46:36.589Z,66.8
2023-03-22T11:49:24.962Z,67.2
2023-03-22T11:52:12.873Z,66.8
2023-03-22T11:55:00.722Z,66.9
2023-03-22T11:57:48.762Z,67.1
2023-03-22T12:00:36.545Z,66.2
2023-03-22T12:03:25.067Z,65.3
2023-03-22T12:06:13.537Z,65.5
2023-03-22T12:09:01.449Z,65.4
2023-03-22T12:11:49.259Z,65.6
2023-03-22T12:14:37.172Z,65.4
2023-03-22T12:17:25.002Z,65
2023-03-22T12:20:13.018Z,64.9
2023-03-22T12:23:00.876Z,65.1
2023-03-22T12:25:48.837Z,65.4
2023-03-22T12:28:36.672Z,65.2
2023-03-22T12:31:24.830Z,65.4
2023-03-22T12:34:12.673Z,65.7
2023-03-22T12:37:00.599Z,65.9
2023-03-22T12:39:48.499Z,66.1
2023-03-22T12:42:51.056Z,66.1
2023-03-22T12:45:40.341Z,66.5
2023-03-22T12:48:28.944Z,66.6
2023-03-22T12:51:16.816Z,66.1
2023-03-22T12:54:04.693Z,66.2
2023-03-22T12:56:52.506Z,66.6
2023-03-22T12:59:40.413Z,66.4
2023-03-22T13:02:28.448Z,66.3
2023-03-22T13:05:16.563Z,66.6
2023-03-22T13:08:04.542Z,66.6
2023-03-22T13:10:52.470Z,66.7
2023-03-22T13:13:40.280Z,66.4
2023-03-22T13:16:28.317Z,66.5
2023-03-22T13:19:16.381Z,66.5
2023-03-22T13:22:05.294Z,66.3
2023-03-22T13:24:53.127Z,66.4
2023-03-22T13:27:40.960Z,66.7
2023-03-22T13:30:31.742Z,66.8
2023-03-22T13:33:23.992Z,66.9
2023-03-22T13:36:12.615Z,66.9
2023-03-22T13:39:00.436Z,66.9
2023-03-22T13:41:48.169Z,66.8
2023-03-22T13:44:36.134Z,67.1
2023-03-22T13:47:24.152Z,67.2
2023-03-22T13:50:12.277Z,66.7
2023-03-22T13:53:00.229Z,66.1
2023-03-22T13:55:48.119Z,66.3
2023-03-22T13:58:36.055Z,66
2023-03-22T14:01:24.150Z,66.2
2023-03-22T14:04:12.201Z,66.1
2023-03-22T14:07:00.132Z,66
2023-03-22T14:09:47.776Z,66
2023-03-22T14:12:35.783Z,66.4
2023-03-22T14:15:23.562Z,66.5
2023-03-22T14:18:11.776Z,66.5
2023-03-22T14:20:59.620Z,66.6
2023-03-22T14:46:52.729Z,66.5
2023-03-22T14:49:40.739Z,66.4
2023-03-22T14:52:31.031Z,66.2
2023-03-22T14:55:19.624Z,66.2
2023-03-22T14:58:08.645Z,65.9
2023-03-22T15:00:56.778Z,66
2023-03-22T15:03:45.411Z,66.1
2023-03-22T15:06:33.470Z,66.2
2023-03-22T15:09:21.457Z,66.2
2023-03-22T15:12:12.015Z,66.4
2023-03-22T15:14:59.848Z,66.4
2023-03-22T15:17:47.893Z,66.5
2023-03-22T15:20:35.873Z,66.6
2023-03-22T15:23:23.670Z,66.8
2023-03-22T15:26:11.557Z,67
2023-03-22T15:28:59.464Z,67.2
2023-03-22T15:31:47.593Z,67.3
2023-03-22T15:34:35.579Z,67.6
2023-03-22T15:37:23.416Z,67.9
2023-03-22T15:40:11.248Z,68.2
2023-03-22T15:42:59.006Z,68.5
2023-03-22T15:45:46.886Z,68.7
2023-03-22T15:48:34.829Z,68.9
2023-03-22T15:51:22.922Z,69
2023-03-22T15:54:10.697Z,69.1
2023-03-22T15:57:07.045Z,69.2
2023-03-22T15:59:54.768Z,69.3
2023-03-22T16:02:42.703Z,69.3
2023-03-22T16:05:30.342Z,69.4
2023-03-22T16:08:18.147Z,69.5
2023-03-22T16:11:05.927Z,69.4
2023-03-22T16:13:53.805Z,69.5
2023-03-22T16:16:41.578Z,69.3
2023-03-22T16:19:29.456Z,69.3
2023-03-22T16:22:17.087Z,69.2
2023-03-22T16:25:04.973Z,69.2
2023-03-22T16:27:52.792Z,69.3
2023-03-22T16:30:40.654Z,69.3
2023-03-22T16:33:28.632Z,69.3
2023-03-22T16:36:16.619Z,69.2
2023-03-22T16:39:04.548Z,69.3
2023-03-22T16:41:52.574Z,69.3
2023-03-22T16:44:50.648Z,69.3
2023-03-22T16:47:42.336Z,69.2
2023-03-22T16:50:30.171Z,69.3
2023-03-22T16:53:17.910Z,69.3
2023-03-22T16:56:05.687Z,69.4
2023-03-22T16:58:53.446Z,69.4
2023-03-22T17:01:41.554Z,69.4
2023-03-22T17:04:29.674Z,69.5
2023-03-22T17:07:17.591Z,69.5
2023-03-22T17:10:05.375Z,69.5
2023-03-22T17:12:53.285Z,69.7
2023-03-22T17:15:41.257Z,69.8
2023-03-22T17:18:29.008Z,70
2023-03-22T17:21:16.833Z,70
2023-03-22T17:24:04.647Z,70.1
2023-03-22T17:26:52.688Z,70.1
2023-03-22T17:29:40.678Z,70
2023-03-22T17:33:01.607Z,70
2023-03-22T17:35:49.973Z,70
2023-03-22T17:39:03.526Z,70
2023-03-22T17:42:00.736Z,70.1
2023-03-22T17:44:49.588Z,70.3
2023-03-22T17:48:04.880Z,70.4
2023-03-22T17:50:53.331Z,70.5
2023-03-22T17:58:40.997Z,70.7
2023-03-22T18:01:29.830Z,70.9
2023-03-22T18:04:17.714Z,71
2023-03-22T18:07:05.688Z,71.1
2023-03-22T18:09:53.720Z,71.2
2023-03-22T18:12:41.570Z,71.3
2023-03-22T18:15:29.411Z,71.5
2023-03-22T18:18:17.282Z,71.6
2023-03-22T18:21:25.606Z,71.7
2023-03-22T18:24:13.723Z,71.9
2023-03-22T18:27:15.892Z,72
2023-03-22T18:30:03.858Z,72.1
2023-03-22T18:33:06.479Z,72.2
2023-03-22T18:35:54.277Z,72.4
2023-03-22T18:54:29.599Z,72.5
2023-03-22T18:57:30.859Z,72.6
2023-03-22T19:00:20.164Z,73.9
2023-03-22T19:03:08.844Z,73.9
2023-03-22T19:05:56.903Z,74
2023-03-22T19:08:54.958Z,74.2
2023-03-22T19:11:42.761Z,74.3
2023-03-22T19:15:46.184Z,74.4
2023-03-22T19:18:34.954Z,74.6
2023-03-22T19:21:38.654Z,74.6
2023-03-22T19:24:26.545Z,74.8
2023-03-22T19:27:28.623Z,75
2023-03-22T19:30:16.697Z,75.2
2023-03-22T19:33:45.621Z,75.2
2023-03-22T19:36:40.717Z,75.4
2023-03-22T19:39:28.596Z,75.5
2023-03-22T19:42:37.077Z,75.9
2023-03-22T19:45:24.800Z,76.2
2023-03-22T19:48:30.967Z,76.6
2023-03-22T19:51:18.684Z,76.9
2023-03-22T19:54:46.728Z,77.9
2023-03-22T19:57:34.404Z,77.9
2023-03-22T20:01:04.901Z,77.9
2023-03-22T20:03:52.717Z,77.7
2023-03-22T20:06:40.599Z,77.7
2023-03-22T20:09:28.341Z,77.7
2023-03-22T20:12:16.525Z,77.9
2023-03-22T20:15:04.365Z,77.8
2023-03-22T20:17:54.927Z,77.8
2023-03-22T20:20:43.045Z,77.8
2023-03-22T20:23:30.829Z,78.1
2023-03-22T20:26:18.645Z,77.9
2023-03-22T20:29:06.808Z,77.9
2023-03-22T20:31:54.436Z,78.4
2023-03-22T20:34:42.197Z,78.4
2023-03-22T20:37:29.890Z,78.3
2023-03-22T20:40:18.254Z,78.4
2023-03-22T20:43:06.258Z,78.7
2023-03-22T20:45:54.241Z,79.1
2023-03-22T20:48:41.967Z,79.5
2023-03-22T20:51:29.842Z,79.6
2023-03-22T20:54:17.772Z,80.6
2023-03-22T20:57:05.728Z,81.2
2023-03-22T20:59:53.676Z,81.3
2023-03-22T21:02:41.582Z,81.5
2023-03-22T21:05:29.566Z,81.5
2023-03-22T21:08:17.527Z,81.6
2023-03-22T21:11:05.496Z,81.8
2023-03-22T21:13:53.736Z,81.7
2023-03-22T21:16:41.578Z,81.4
2023-03-22T21:19:29.305Z,81.6
2023-03-22T21:22:20.264Z,81.5
2023-03-22T21:25:08.066Z,81.4
2023-03-22T21:27:55.943Z,81.4
2023-03-22T21:30:43.744Z,81.5
2023-03-22T21:33:31.707Z,81.8
2023-03-22T21:36:19.639Z,81.8
2023-03-22T21:39:07.430Z,81.5
2023-03-22T21:41:55.650Z,81.5
2023-03-22T21:44:43.557Z,81.4
2023-03-22T21:47:31.480Z,81.6
2023-03-22T21:50:19.483Z,81.7
2023-03-22T21:53:07.209Z,81.9
2023-03-22T21:55:54.893Z,81.7
2023-03-22T21:58:42.799Z,81.4
2023-03-22T22:01:30.901Z,81
2023-03-22T22:04:18.821Z,80.7
2023-03-22T22:07:06.643Z,80.5
2023-03-22T22:09:54.833Z,80.6
2023-03-22T22:12:42.969Z,80.6
2023-03-22T22:15:30.961Z,80.7
2023-03-22T22:18:19.057Z,80.6
2023-03-22T22:21:07.247Z,80.6
2023-03-22T22:23:55.336Z,81.5
2023-03-22T22:26:43.120Z,82.2
2023-03-22T22:29:31.024Z,82.9
2023-03-22T22:32:18.911Z,83.6
2023-03-22T22:35:06.727Z,84.3
2023-03-22T22:37:54.866Z,84.8
2023-03-22T22:40:42.622Z,85.5
2023-03-22T22:43:31.352Z,85.7
2023-03-22T22:46:19.044Z,86.2
2023-03-22T22:49:07.050Z,86.9
2023-03-22T22:51:54.902Z,87
2023-03-22T22:54:43.208Z,86.8
2023-03-22T22:57:31.136Z,86.7
2023-03-22T23:00:19.226Z,86.4
2023-03-22T23:03:06.971Z,86
2023-03-22T23:05:54.894Z,85.7
2023-03-22T23:08:43.089Z,85.5
2023-03-22T23:11:30.968Z,85.3
2023-03-22T23:14:18.670Z,85.1
2023-03-22T23:17:06.661Z,84.9
2023-03-22T23:19:54.526Z,84.7
2023-03-22T23:22:43.258Z,84.4
2023-03-22T23:25:31.373Z,84.2
2023-03-22T23:28:19.157Z,84
2023-03-22T23:31:06.833Z,83.7
2023-03-22T23:33:54.882Z,83.7
2023-03-22T23:36:42.470Z,83.6
2023-03-22T23:39:30.233Z,83.4
2023-03-22T23:42:18.348Z,83.3
2023-03-22T23:45:06.343Z,83
2023-03-22T23:47:55.329Z,82.6
2023-03-22T23:50:43.263Z,82.4
2023-03-22T23:53:30.844Z,82.1
2023-03-22T23:56:18.774Z,82
2023-03-22T23:59:06.978Z,81.6
